createdAt,value
2022-11-10T00:01:06.407Z,5.27
2022-11-10T00:03:33.952Z,5.40
2022-11-10T00:06:02.594Z,5.40
2022-11-10T00:08:29.651Z,5.70
2022-11-10T00:11:01.744Z,5.70
2022-11-10T00:13:32.767Z,5.10
2022-11-10T00:16:22.015Z,4.63
2022-11-10T00:18:49.140Z,5.10
2022-11-10T00:21:16.738Z,3.97
2022-11-10T00:23:44.096Z,4.60
2022-11-10T00:26:12.568Z,4.10
2022-11-10T00:28:39.718Z,4.83
2022-11-10T00:31:07.501Z,4.30
2022-11-10T00:33:35.176Z,4.00
2022-11-10T00:36:02.420Z,3.80
2022-11-10T00:38:29.536Z,4.03
2022-11-10T00:40:56.632Z,4.50
2022-11-10T00:43:26.499Z,4.33
2022-11-10T00:45:54.038Z,3.63
2022-11-10T00:48:21.096Z,3.57
2022-11-10T00:50:48.170Z,4.00
2022-11-10T00:53:15.301Z,3.57
2022-11-10T00:55:42.737Z,3.50
2022-11-10T00:58:09.819Z,2.90
2022-11-10T01:00:36.931Z,3.47
2022-11-10T01:03:04.035Z,3.27
2022-11-10T01:05:31.689Z,3.63
2022-11-10T01:08:02.117Z,3.30
2022-11-10T01:10:29.183Z,3.63
2022-11-10T01:12:56.306Z,3.67
2022-11-10T01:15:27.619Z,3.57
2022-11-10T01:17:55.908Z,3.53
2022-11-10T01:20:23.344Z,3.63
2022-11-10T01:22:50.490Z,3.73
2022-11-10T01:25:17.579Z,3.37
2022-11-10T01:27:44.666Z,3.40
2022-11-10T01:30:12.038Z,3.20
2022-11-10T01:32:39.240Z,3.20
2022-11-10T01:35:06.664Z,3.20
2022-11-10T01:37:33.770Z,3.20
2022-11-10T01:40:00.914Z,4.27
2022-11-10T01:42:29.382Z,3.67
2022-11-10T01:45:34.833Z,3.00
2022-11-10T01:48:04.459Z,2.77
2022-11-10T01:50:33.678Z,3.03
2022-11-10T01:53:03.322Z,2.93
2022-11-10T01:55:30.775Z,2.80
2022-11-10T01:57:58.074Z,3.00
2022-11-10T02:00:25.183Z,3.20
2022-11-10T02:02:58.590Z,2.93
2022-11-10T02:05:26.341Z,3.03
2022-11-10T02:07:53.579Z,2.63
2022-11-10T02:10:21.467Z,3.10
2022-11-10T02:12:49.313Z,2.97
2022-11-10T02:15:17.614Z,2.67
2022-11-10T02:17:46.380Z,2.40
2022-11-10T02:20:14.471Z,2.30
2022-11-10T02:22:41.914Z,2.70
2022-11-10T02:25:09.419Z,2.40
2022-11-10T02:27:36.492Z,2.40
2022-11-10T02:30:03.628Z,2.73
2022-11-10T02:32:30.716Z,3.10
2022-11-10T02:34:57.783Z,2.80
2022-11-10T02:37:24.897Z,2.47
2022-11-10T02:39:51.951Z,2.33
2022-11-10T02:42:19.103Z,2.23
2022-11-10T02:44:46.202Z,2.30
2022-11-10T02:47:13.255Z,1.97
2022-11-10T02:49:40.338Z,2.13
2022-11-10T02:52:07.384Z,1.83
2022-11-10T02:54:34.473Z,1.87
2022-11-10T02:57:02.713Z,1.60
2022-11-10T02:59:29.904Z,1.63
2022-11-10T03:01:56.955Z,1.60
2022-11-10T03:04:24.036Z,1.50
2022-11-10T03:06:51.166Z,1.53
2022-11-10T03:09:18.250Z,1.10
2022-11-10T03:11:45.380Z,1.50
2022-11-10T03:14:12.440Z,1.20
2022-11-10T03:16:39.515Z,1.70
2022-11-10T03:19:06.573Z,1.40
2022-11-10T03:21:33.652Z,1.20
2022-11-10T03:24:00.699Z,1.50
2022-11-10T03:26:27.833Z,1.60
2022-11-10T03:28:54.925Z,1.40
2022-11-10T03:31:21.995Z,1.03
2022-11-10T03:33:49.122Z,1.30
2022-11-10T03:36:16.183Z,1.40
2022-11-10T03:38:43.259Z,1.37
2022-11-10T03:41:19.768Z,1.33
2022-11-10T03:43:47.773Z,1.20
2022-11-10T03:46:14.819Z,1.43
2022-11-10T03:48:41.921Z,1.30
2022-11-10T03:51:09.001Z,1.50
2022-11-10T03:53:36.166Z,1.30
2022-11-10T03:56:04.217Z,1.10
2022-11-10T03:58:31.341Z,1.50
2022-11-10T04:00:58.493Z,1.73
2022-11-10T04:03:26.192Z,1.60
2022-11-10T04:06:12.261Z,1.20
2022-11-10T04:08:58.355Z,1.40
2022-11-10T04:11:44.700Z,1.60
2022-11-10T04:14:30.586Z,1.10
2022-11-10T04:16:57.993Z,1.00
2022-11-10T04:19:25.399Z,1.53
2022-11-10T04:21:52.538Z,1.27
2022-11-10T04:24:19.644Z,1.30
2022-11-10T04:26:48.216Z,1.10
2022-11-10T04:29:16.463Z,1.40
2022-11-10T04:31:43.812Z,1.40
2022-11-10T04:34:12.414Z,1.30
2022-11-10T04:36:40.991Z,1.30
2022-11-10T04:39:08.586Z,1.20
2022-11-10T04:41:35.858Z,1.20
2022-11-10T04:44:03.294Z,1.33
2022-11-10T04:46:31.604Z,1.50
2022-11-10T04:48:59.155Z,1.30
2022-11-10T04:51:27.742Z,1.10
2022-11-10T04:53:55.052Z,1.50
2022-11-10T04:56:23.303Z,1.37
2022-11-10T04:58:50.917Z,1.10
2022-11-10T05:01:19.218Z,1.20
2022-11-10T05:03:46.608Z,1.63
2022-11-10T05:06:13.991Z,1.60
2022-11-10T05:08:41.904Z,1.53
2022-11-10T05:11:09.048Z,1.60
2022-11-10T05:13:36.170Z,1.40
2022-11-10T05:16:03.317Z,1.10
2022-11-10T05:18:30.521Z,1.27
2022-11-10T05:20:57.597Z,1.40
2022-11-10T05:23:39.871Z,1.20
2022-11-10T05:26:11.818Z,1.50
2022-11-10T05:28:39.356Z,1.07
2022-11-10T05:31:06.690Z,1.30
2022-11-10T05:33:34.634Z,1.30
2022-11-10T05:36:01.982Z,1.50
2022-11-10T05:38:29.167Z,1.27
2022-11-10T05:40:56.337Z,1.03
2022-11-10T05:43:23.777Z,0.93
2022-11-10T05:45:51.672Z,1.27
2022-11-10T05:48:18.829Z,1.00
2022-11-10T05:50:45.948Z,1.20
2022-11-10T05:53:13.169Z,1.47
2022-11-10T05:55:40.217Z,1.40
2022-11-10T05:58:07.476Z,1.27
2022-11-10T06:00:35.444Z,1.50
2022-11-10T06:03:04.156Z,1.37
2022-11-10T06:05:32.325Z,1.60
2022-11-10T06:07:59.708Z,1.20
2022-11-10T06:10:26.846Z,1.40
2022-11-10T06:12:54.361Z,1.67
2022-11-10T06:15:21.844Z,2.00
2022-11-10T06:17:49.259Z,2.20
2022-11-10T06:20:17.590Z,2.00
2022-11-10T06:22:45.472Z,1.90
2022-11-10T06:25:12.566Z,1.70
2022-11-10T06:27:43.694Z,1.80
2022-11-10T06:30:11.252Z,1.80
2022-11-10T06:32:38.628Z,1.60
2022-11-10T06:35:05.905Z,1.70
2022-11-10T06:37:33.002Z,1.70
2022-11-10T06:40:00.053Z,2.03
2022-11-10T06:42:27.148Z,1.90
2022-11-10T06:44:54.186Z,2.23
2022-11-10T06:47:21.475Z,2.10
2022-11-10T06:49:48.559Z,1.90
2022-11-10T06:52:15.631Z,1.87
2022-11-10T06:54:42.826Z,1.83
2022-11-10T06:57:09.916Z,2.07
2022-11-10T06:59:37.048Z,2.27
2022-11-10T07:02:04.112Z,2.33
2022-11-10T07:04:31.218Z,2.10
2022-11-10T07:06:58.445Z,1.93
2022-11-10T07:09:25.613Z,1.93
2022-11-10T07:11:52.714Z,1.80
2022-11-10T07:14:19.781Z,1.80
2022-11-10T07:16:46.881Z,2.00
2022-11-10T07:19:13.939Z,2.03
2022-11-10T07:21:42.159Z,1.80
2022-11-10T07:24:09.395Z,1.53
2022-11-10T07:26:36.479Z,1.40
2022-11-10T07:29:03.614Z,1.87
2022-11-10T07:31:30.994Z,1.53
2022-11-10T07:33:58.150Z,1.93
2022-11-10T07:36:28.865Z,1.70
2022-11-10T07:38:56.241Z,1.60
2022-11-10T07:41:23.331Z,1.40
2022-11-10T07:43:50.455Z,1.67
2022-11-10T07:46:17.603Z,1.50
2022-11-10T07:48:44.713Z,1.30
2022-11-10T07:51:11.815Z,1.53
2022-11-10T07:53:39.837Z,1.37
2022-11-10T07:56:07.140Z,1.30
2022-11-10T07:58:35.369Z,1.17
2022-11-10T08:01:03.635Z,1.10
2022-11-10T08:03:30.746Z,1.07
2022-11-10T08:05:57.900Z,1.13
2022-11-10T08:08:24.982Z,1.30
2022-11-10T08:10:52.133Z,1.30
2022-11-10T08:13:19.624Z,1.10
2022-11-10T08:15:47.183Z,1.10
2022-11-10T08:18:21.483Z,1.10
2022-11-10T08:20:48.820Z,1.30
2022-11-10T08:23:16.264Z,1.13
2022-11-10T08:25:43.357Z,1.40
2022-11-10T08:28:11.774Z,1.33
2022-11-10T08:30:39.673Z,1.20
2022-11-10T08:33:08.343Z,1.10
2022-11-10T08:35:37.629Z,1.70
2022-11-10T08:38:11.544Z,1.50
2022-11-10T08:40:39.123Z,1.30
2022-11-10T08:43:09.641Z,1.77
2022-11-10T08:45:37.402Z,1.53
2022-11-10T08:48:05.820Z,1.33
2022-11-10T08:50:33.162Z,2.70
2022-11-10T08:53:03.766Z,1.30
2022-11-10T08:55:31.078Z,1.53
2022-11-10T08:58:02.177Z,1.30
2022-11-10T09:00:29.804Z,1.47
2022-11-10T09:02:57.254Z,1.37
2022-11-10T09:05:24.998Z,1.37
2022-11-10T09:07:52.197Z,1.47
2022-11-10T09:10:19.354Z,1.40
2022-11-10T09:12:46.442Z,1.50
2022-11-10T09:15:14.378Z,1.50
2022-11-10T09:17:41.836Z,1.50
2022-11-10T09:20:09.756Z,1.70
2022-11-10T09:22:37.038Z,1.50
2022-11-10T09:25:04.622Z,1.40
2022-11-10T09:27:32.416Z,1.20
2022-11-10T09:29:59.499Z,1.23
2022-11-10T09:32:26.614Z,1.30
2022-11-10T09:34:56.650Z,1.30
2022-11-10T09:37:23.706Z,1.47
2022-11-10T09:39:50.855Z,1.60
2022-11-10T09:42:41.189Z,1.23
2022-11-10T09:45:15.555Z,1.20
2022-11-10T09:47:57.520Z,1.50
2022-11-10T09:50:37.959Z,1.40
2022-11-10T09:53:06.734Z,1.27
2022-11-10T09:55:44.354Z,1.20
2022-11-10T09:58:14.708Z,1.30
2022-11-10T10:00:50.912Z,1.30
2022-11-10T10:03:20.166Z,1.23
2022-11-10T10:05:55.900Z,1.30
2022-11-10T10:08:46.121Z,1.50
2022-11-10T10:11:27.755Z,1.60
2022-11-10T10:14:18.278Z,1.23
2022-11-10T10:16:45.383Z,1.53
2022-11-10T10:19:21.056Z,1.10
2022-11-10T10:21:48.103Z,1.40
2022-11-10T10:24:21.855Z,1.20
2022-11-10T10:26:53.827Z,1.13
2022-11-10T10:29:23.868Z,1.30
2022-11-10T10:31:52.036Z,1.37
2022-11-10T10:34:20.996Z,1.43
2022-11-10T10:36:48.438Z,1.40
2022-11-10T10:39:27.691Z,1.33
2022-11-10T10:41:54.793Z,1.23
2022-11-10T10:44:22.058Z,1.20
2022-11-10T10:46:56.421Z,1.10
2022-11-10T10:49:29.965Z,1.33
2022-11-10T10:52:11.333Z,1.10
2022-11-10T10:54:39.101Z,1.43
2022-11-10T10:57:18.982Z,1.27
2022-11-10T10:59:46.103Z,1.30
2022-11-10T11:02:39.603Z,1.27
2022-11-10T11:05:17.324Z,1.23
2022-11-10T11:07:57.451Z,1.47
2022-11-10T11:10:26.354Z,1.07
2022-11-10T11:12:53.438Z,1.00
2022-11-10T11:15:30.329Z,1.00
2022-11-10T11:18:02.508Z,1.10
2022-11-10T11:20:48.162Z,1.70
2022-11-10T11:23:39.366Z,1.80
2022-11-10T11:26:15.732Z,1.17
2022-11-10T11:28:42.845Z,1.40
2022-11-10T11:31:09.910Z,1.10
2022-11-10T11:34:06.174Z,1.10
2022-11-10T11:37:00.727Z,1.57
2022-11-10T11:39:31.731Z,1.20
2022-11-10T11:42:01.557Z,1.13
2022-11-10T11:44:47.130Z,1.03
2022-11-10T11:47:20.427Z,1.60
2022-11-10T11:50:05.535Z,1.30
2022-11-10T11:52:34.576Z,1.20
2022-11-10T11:55:14.061Z,1.50
2022-11-10T11:57:49.848Z,1.10
2022-11-10T12:00:18.357Z,1.63
2022-11-10T12:02:50.049Z,1.20
2022-11-10T12:05:36.646Z,1.73
2022-11-10T12:08:22.678Z,1.13
2022-11-10T12:10:59.434Z,1.37
2022-11-10T12:13:33.512Z,1.20
2022-11-10T12:16:03.646Z,1.03
2022-11-10T12:18:38.163Z,1.20
2022-11-10T12:21:08.195Z,1.30
2022-11-10T12:23:38.280Z,1.20
2022-11-10T12:26:12.887Z,1.17
2022-11-10T12:28:49.313Z,1.30
2022-11-10T12:31:18.862Z,1.23
2022-11-10T12:33:48.878Z,1.20
2022-11-10T12:36:17.222Z,1.10
2022-11-10T12:39:00.052Z,1.40
2022-11-10T12:41:30.820Z,1.10
2022-11-10T12:44:00.627Z,1.33
2022-11-10T12:46:27.789Z,0.90
2022-11-10T12:49:05.868Z,1.43
2022-11-10T12:51:48.344Z,1.13
2022-11-10T12:54:17.192Z,1.30
2022-11-10T12:56:50.125Z,1.07
2022-11-10T12:59:19.946Z,0.93
2022-11-10T13:01:48.027Z,1.37
2022-11-10T13:04:16.305Z,1.10
2022-11-10T13:06:48.337Z,1.33
2022-11-10T13:09:27.808Z,1.23
2022-11-10T13:12:21.041Z,1.20
2022-11-10T13:14:48.878Z,1.10
2022-11-10T13:17:30.886Z,1.20
2022-11-10T13:20:09.593Z,1.37
2022-11-10T13:22:47.441Z,1.00
2022-11-10T13:25:33.371Z,1.13
2022-11-10T13:28:00.469Z,1.07
2022-11-10T13:30:53.934Z,1.00
2022-11-10T13:33:23.827Z,0.80
2022-11-10T13:35:56.088Z,1.10
2022-11-10T13:38:32.412Z,1.10
2022-11-10T13:41:20.938Z,1.07
2022-11-10T13:43:49.024Z,1.20
2022-11-10T13:46:16.158Z,1.10
2022-11-10T13:48:48.575Z,1.00
2022-11-10T13:51:21.507Z,1.10
2022-11-10T13:54:13.690Z,1.50
2022-11-10T13:56:59.316Z,1.00
2022-11-10T13:59:27.752Z,1.00
2022-11-10T14:02:14.816Z,1.10
2022-11-10T14:04:43.500Z,0.90
2022-11-10T14:07:15.395Z,1.13
2022-11-10T14:09:44.485Z,0.90
2022-11-10T14:12:30.856Z,0.97
2022-11-10T14:15:01.009Z,0.87
2022-11-10T14:17:42.071Z,1.33
2022-11-10T14:20:22.004Z,1.30
2022-11-10T14:22:50.439Z,1.33
2022-11-10T14:25:36.026Z,1.20
2022-11-10T14:28:03.730Z,0.90
2022-11-10T14:30:33.559Z,1.10
2022-11-10T14:33:06.382Z,1.30
2022-11-10T14:35:35.658Z,1.23
2022-11-10T14:38:03.813Z,1.40
2022-11-10T14:40:31.627Z,1.63
2022-11-10T14:42:59.867Z,1.43
2022-11-10T14:45:28.192Z,1.23
2022-11-10T14:47:59.742Z,1.90
2022-11-10T14:50:28.376Z,1.33
2022-11-10T14:52:57.978Z,1.23
2022-11-10T14:55:27.433Z,1.40
2022-11-10T14:57:56.802Z,1.50
2022-11-10T15:00:25.586Z,1.40
2022-11-10T15:02:54.383Z,1.70
2022-11-10T15:05:21.644Z,1.10
2022-11-10T15:07:52.208Z,1.30
2022-11-10T15:10:22.222Z,1.40
2022-11-10T15:13:07.801Z,1.40
2022-11-10T15:15:35.248Z,1.40
2022-11-10T15:18:02.406Z,1.80
2022-11-10T15:20:39.887Z,1.10
2022-11-10T15:23:22.501Z,1.20
2022-11-10T15:25:53.148Z,1.57
2022-11-10T15:28:27.330Z,1.30
2022-11-10T15:30:59.499Z,1.40
2022-11-10T15:33:28.015Z,1.40
2022-11-10T15:35:56.327Z,1.43
2022-11-10T15:38:28.819Z,1.33
2022-11-10T15:41:27.411Z,1.50
2022-11-10T15:43:54.820Z,1.47
2022-11-10T15:46:24.174Z,1.57
2022-11-10T15:48:52.354Z,1.33
2022-11-10T15:51:25.878Z,1.57
2022-11-10T15:53:54.329Z,1.60
2022-11-10T15:56:22.815Z,1.60
2022-11-10T15:58:51.431Z,1.83
2022-11-10T16:01:18.665Z,1.63
2022-11-10T16:03:46.085Z,1.50
2022-11-10T16:06:17.224Z,1.83
2022-11-10T16:08:44.292Z,2.30
2022-11-10T16:11:21.827Z,1.80
2022-11-10T16:13:49.528Z,1.63
2022-11-10T16:16:20.333Z,1.90
2022-11-10T16:18:47.376Z,1.60
2022-11-10T16:21:15.784Z,1.90
2022-11-10T16:23:43.203Z,1.90
2022-11-10T16:26:13.703Z,1.93
2022-11-10T16:28:44.002Z,1.90
2022-11-10T16:31:11.866Z,2.03
2022-11-10T16:33:39.147Z,2.17
2022-11-10T16:36:06.270Z,2.00
2022-11-10T16:38:33.475Z,1.80
2022-11-10T16:41:01.800Z,2.07
2022-11-10T16:43:29.644Z,1.83
2022-11-10T16:45:59.594Z,2.10
2022-11-10T16:48:31.482Z,2.00
2022-11-10T16:50:59.451Z,2.20
2022-11-10T16:53:28.351Z,2.30
2022-11-10T16:55:55.595Z,2.07
2022-11-10T16:58:24.851Z,2.00
2022-11-10T17:00:52.431Z,2.00
2022-11-10T17:03:22.213Z,2.10
2022-11-10T17:05:49.403Z,2.20
2022-11-10T17:08:24.303Z,2.00
2022-11-10T17:10:51.983Z,2.00
2022-11-10T17:13:19.201Z,2.03
2022-11-10T17:15:46.839Z,1.97
2022-11-10T17:18:15.514Z,2.33
2022-11-10T17:20:45.684Z,2.03
2022-11-10T17:23:14.563Z,2.33
2022-11-10T17:25:42.132Z,2.23
2022-11-10T17:28:18.382Z,2.53
2022-11-10T17:30:45.553Z,2.50
2022-11-10T17:33:12.831Z,2.60
2022-11-10T17:35:42.848Z,2.23
2022-11-10T17:38:12.115Z,2.17
2022-11-10T17:40:41.209Z,2.30
2022-11-10T17:43:12.261Z,2.30
2022-11-10T17:45:39.549Z,2.30
2022-11-10T17:48:06.928Z,2.10
2022-11-10T17:50:35.743Z,2.40
2022-11-10T17:53:03.626Z,2.60
2022-11-10T17:55:34.315Z,2.50
2022-11-10T17:58:01.710Z,2.40
2022-11-10T18:00:29.449Z,2.90
2022-11-10T18:02:56.534Z,2.90
2022-11-10T18:05:23.637Z,2.70
2022-11-10T18:07:51.839Z,3.30
2022-11-10T18:10:19.229Z,3.00
2022-11-10T18:12:46.323Z,2.90
2022-11-10T18:15:14.620Z,2.70
2022-11-10T18:17:42.064Z,2.87
2022-11-10T18:20:09.841Z,2.50
2022-11-10T18:22:37.198Z,2.40
2022-11-10T18:25:04.751Z,2.40
2022-11-10T18:27:32.118Z,2.60
2022-11-10T18:29:59.202Z,3.27
2022-11-10T18:32:26.278Z,2.87
2022-11-10T18:34:53.361Z,2.87
2022-11-10T18:37:21.013Z,3.30
2022-11-10T18:39:48.109Z,2.87
2022-11-10T18:42:15.365Z,3.07
2022-11-10T18:44:42.485Z,2.97
2022-11-10T18:47:12.065Z,3.20
2022-11-10T18:49:39.236Z,2.80
2022-11-10T18:52:06.388Z,2.70
2022-11-10T18:54:33.957Z,2.50
2022-11-10T18:57:01.124Z,2.87
2022-11-10T18:59:28.164Z,2.70
2022-11-10T19:01:55.567Z,2.63
2022-11-10T19:04:22.667Z,2.40
2022-11-10T19:06:49.784Z,2.40
2022-11-10T19:09:16.919Z,2.30
2022-11-10T19:11:44.370Z,2.43
2022-11-10T19:14:11.442Z,2.10
2022-11-10T19:16:38.524Z,2.53
2022-11-10T19:19:05.709Z,2.30
2022-11-10T19:21:32.750Z,2.20
2022-11-10T19:24:00.150Z,2.70
2022-11-10T19:26:28.263Z,2.23
2022-11-10T19:28:55.964Z,1.87
2022-11-10T19:31:24.086Z,2.27
2022-11-10T19:33:53.452Z,2.20
2022-11-10T19:36:27.452Z,1.83
2022-11-10T19:38:55.106Z,2.50
2022-11-10T19:41:23.568Z,2.60
2022-11-10T19:43:50.626Z,2.50
2022-11-10T19:46:18.940Z,2.40
2022-11-10T19:48:46.052Z,2.27
2022-11-10T19:51:14.522Z,2.40
2022-11-10T19:53:46.434Z,2.20
2022-11-10T19:56:20.058Z,2.30
2022-11-10T19:58:47.629Z,2.17
2022-11-10T20:01:15.209Z,2.10
2022-11-10T20:03:43.209Z,1.87
2022-11-10T20:06:11.858Z,2.13
2022-11-10T20:08:39.683Z,2.03
2022-11-10T20:11:08.299Z,2.40
2022-11-10T20:13:35.708Z,2.37
2022-11-10T20:16:06.433Z,1.90
2022-11-10T20:18:36.358Z,2.57
2022-11-10T20:21:07.565Z,2.20
2022-11-10T20:23:34.922Z,2.17
2022-11-10T20:26:03.009Z,2.50
2022-11-10T20:28:30.094Z,2.33
2022-11-10T20:30:57.995Z,2.53
2022-11-10T20:33:25.347Z,2.10
2022-11-10T20:35:52.621Z,2.40
2022-11-10T20:38:19.750Z,2.40
2022-11-10T20:40:46.825Z,2.67
2022-11-10T20:43:14.861Z,2.27
2022-11-10T20:45:42.531Z,2.47
2022-11-10T20:48:09.601Z,2.70
2022-11-10T20:50:39.512Z,2.43
2022-11-10T20:53:06.625Z,2.37
2022-11-10T20:55:52.693Z,2.57
2022-11-10T20:58:20.732Z,2.60
2022-11-10T21:00:47.798Z,2.60
2022-11-10T21:03:14.833Z,2.30
2022-11-10T21:05:41.911Z,2.50
2022-11-10T21:08:08.963Z,2.70
2022-11-10T21:10:36.048Z,2.50
2022-11-10T21:13:03.128Z,2.20
2022-11-10T21:15:30.171Z,2.73
2022-11-10T21:17:57.301Z,2.63
2022-11-10T21:20:24.364Z,2.20
2022-11-10T21:22:51.559Z,2.47
2022-11-10T21:25:20.464Z,2.60
2022-11-10T21:27:47.974Z,2.57
2022-11-10T21:30:22.858Z,2.57
2022-11-10T21:32:50.041Z,2.23
2022-11-10T21:35:17.224Z,2.30
2022-11-10T21:37:44.335Z,2.57
2022-11-10T21:40:11.911Z,3.00
2022-11-10T21:42:39.095Z,2.60
2022-11-10T21:45:06.887Z,3.00
2022-11-10T21:47:34.310Z,2.90
2022-11-10T21:50:01.394Z,2.87
2022-11-10T21:52:32.475Z,2.40
2022-11-10T21:55:00.039Z,2.83
2022-11-10T21:57:27.146Z,2.50
2022-11-10T21:59:54.241Z,2.33
2022-11-10T22:02:21.401Z,2.57
2022-11-10T22:04:48.443Z,2.87
2022-11-10T22:07:24.584Z,2.37
2022-11-10T22:10:10.767Z,2.63
2022-11-10T22:12:56.638Z,2.60
2022-11-10T22:15:42.637Z,2.67
2022-11-10T22:18:31.294Z,2.40
2022-11-10T22:20:58.444Z,2.70
2022-11-10T22:23:44.068Z,2.60
2022-11-10T22:26:11.751Z,2.43
2022-11-10T22:28:39.261Z,2.50
2022-11-10T22:31:07.510Z,2.60
2022-11-10T22:33:38.526Z,2.30
2022-11-10T22:36:06.832Z,2.40
2022-11-10T22:38:34.720Z,2.37
2022-11-10T22:41:20.404Z,2.30
2022-11-10T22:44:06.598Z,2.20
2022-11-10T22:46:34.966Z,2.40
2022-11-10T22:49:02.800Z,2.40
2022-11-10T22:51:30.824Z,2.60
2022-11-10T22:53:58.324Z,2.90
2022-11-10T22:56:25.555Z,2.50
2022-11-10T22:58:58.484Z,2.50
2022-11-10T23:01:27.047Z,2.40
2022-11-10T23:03:54.403Z,2.20
2022-11-10T23:06:21.539Z,2.40
2022-11-10T23:08:48.609Z,2.23
2022-11-10T23:11:17.098Z,2.37
2022-11-10T23:13:44.208Z,2.73
2022-11-10T23:16:12.529Z,2.70
2022-11-10T23:18:40.479Z,2.50
2022-11-10T23:21:08.602Z,2.60
2022-11-10T23:23:36.691Z,2.10
2022-11-10T23:26:05.289Z,2.40
2022-11-10T23:28:32.872Z,2.57
2022-11-10T23:31:13.667Z,2.50
2022-11-10T23:33:41.604Z,2.77
2022-11-10T23:36:09.732Z,2.40
2022-11-10T23:38:37.465Z,2.40
2022-11-10T23:41:05.358Z,2.17
2022-11-10T23:43:32.591Z,3.13
2022-11-10T23:46:06.864Z,2.80
2022-11-10T23:48:35.163Z,2.67
2022-11-10T23:51:02.313Z,3.30
2022-11-10T23:53:29.504Z,3.00
2022-11-10T23:56:00.676Z,3.10
2022-11-10T23:58:28.278Z,3.00
